CPA764 VVTS-VHHH
Flight info
| Callsign | CPA764 |
|---|---|
| Flight time | 1h 57m |
| Altitude | 37000 |
| Route | K0907F370 PATMA W12 PCA G221 BUNTA A1 IKELA/N0489F370 P901 IDOSI V561 CANTO |
| Aircraft | B77W/H-SDE3GHIJ2J3J4J7M3P2RWXYZ/LB1D1 |
Departure
| Time | 2026-05-06 08:26 |
|---|---|
| Airport | Tan Son Nhat International Airport (VVTS) |
Arrival
| Time | 2026-05-06 10:23 |
|---|---|
| Airport | Hong Kong International Airport (VHHH) |
| Time | Latitude | Longitude | Altitude | Speed | Heading |
|---|---|---|---|---|---|
| 2026-05-06 07:11 | 10.81811 | 106.66500 | 44 ft | 0 kts | 159° |
| 2026-05-06 08:18 | 10.81819 | 106.66497 | 44 ft | 4 kts | 159° |
| 2026-05-06 08:18 | 10.81844 | 106.66487 | 41 ft | 4 kts | 159° |
| 2026-05-06 08:18 | 10.81866 | 106.66479 | 40 ft | 4 kts | 156° |
| 2026-05-06 08:19 | 10.81886 | 106.66465 | 39 ft | 4 kts | 114° |
| 2026-05-06 08:19 | 10.81889 | 106.66440 | 40 ft | 4 kts | 72° |
| 2026-05-06 08:19 | 10.81878 | 106.66415 | 39 ft | 4 kts | 68° |
| 2026-05-06 08:19 | 10.81876 | 106.66409 | 40 ft | 0 kts | 69° |
| 2026-05-06 08:22 | 10.81878 | 106.66413 | 39 ft | 3 kts | 70° |
| 2026-05-06 08:22 | 10.81902 | 106.66479 | 42 ft | 17 kts | 69° |
| 2026-05-06 08:22 | 10.81946 | 106.66595 | 44 ft | 17 kts | 69° |
| 2026-05-06 08:23 | 10.81985 | 106.66699 | 44 ft | 15 kts | 69° |
| 2026-05-06 08:23 | 10.82023 | 106.66797 | 44 ft | 15 kts | 69° |
| 2026-05-06 08:23 | 10.82070 | 106.66890 | 44 ft | 15 kts | 49° |
| 2026-05-06 08:23 | 10.82149 | 106.66959 | 44 ft | 15 kts | 39° |
| 2026-05-06 08:24 | 10.82230 | 106.67011 | 44 ft | 13 kts | 5° |
| 2026-05-06 08:24 | 10.82268 | 106.67003 | 44 ft | 0 kts | 340° |
| 2026-05-06 08:25 | 10.82270 | 106.67002 | 44 ft | 3 kts | 340° |
| 2026-05-06 08:25 | 10.82333 | 106.66961 | 43 ft | 16 kts | 318° |
| 2026-05-06 08:25 | 10.82349 | 106.66891 | 43 ft | 13 kts | 251° |
| 2026-05-06 08:26 | 10.82262 | 106.66661 | 42 ft | 68 kts | 249° |
| 2026-05-06 08:26 | 10.81997 | 106.65962 | 46 ft | 140 kts | 249° |
| 2026-05-06 08:26 | 10.81585 | 106.64878 | 259 ft | 175 kts | 248° |
| 2026-05-06 08:26 | 10.81159 | 106.63704 | 876 ft | 181 kts | 249° |
| 2026-05-06 08:27 | 10.80699 | 106.62460 | 1425 ft | 196 kts | 248° |
| 2026-05-06 08:27 | 10.80181 | 106.61073 | 1719 ft | 224 kts | 248° |
| 2026-05-06 08:27 | 10.79596 | 106.59482 | 1974 ft | 254 kts | 248° |
| 2026-05-06 08:27 | 10.78962 | 106.57765 | 2682 ft | 264 kts | 249° |
| 2026-05-06 08:28 | 10.78347 | 106.55987 | 3432 ft | 269 kts | 258° |
| 2026-05-06 08:28 | 10.78399 | 106.54067 | 4272 ft | 279 kts | 287° |
| 2026-05-06 08:28 | 10.79213 | 106.52298 | 5324 ft | 277 kts | 305° |
| 2026-05-06 08:28 | 10.80545 | 106.50876 | 6064 ft | 282 kts | 328° |
| 2026-05-06 08:29 | 10.82377 | 106.50218 | 6785 ft | 282 kts | 0° |
| 2026-05-06 08:29 | 10.84282 | 106.50477 | 7555 ft | 282 kts | 11° |
| 2026-05-06 08:29 | 10.86256 | 106.50736 | 8312 ft | 289 kts | 7° |
| 2026-05-06 08:29 | 10.88263 | 106.50962 | 9198 ft | 292 kts | 8° |
| 2026-05-06 08:30 | 10.90285 | 106.51208 | 10085 ft | 294 kts | 8° |
| 2026-05-06 08:30 | 10.92341 | 106.51607 | 10431 ft | 314 kts | 22° |
| 2026-05-06 08:30 | 10.94371 | 106.52648 | 10659 ft | 340 kts | 31° |
| 2026-05-06 08:30 | 10.96397 | 106.54026 | 10766 ft | 361 kts | 44° |
| 2026-05-06 08:31 | 10.97925 | 106.56094 | 11111 ft | 371 kts | 58° |
| 2026-05-06 08:31 | 10.99301 | 106.58262 | 11677 ft | 382 kts | 56° |
| 2026-05-06 08:31 | 11.00872 | 106.60469 | 12573 ft | 386 kts | 53° |
| 2026-05-06 08:31 | 11.02517 | 106.62638 | 13542 ft | 389 kts | 52° |
| 2026-05-06 08:32 | 11.04203 | 106.64818 | 14322 ft | 395 kts | 52° |
| 2026-05-06 08:32 | 11.05915 | 106.67029 | 15054 ft | 400 kts | 52° |
| 2026-05-06 08:32 | 11.07645 | 106.69271 | 15793 ft | 406 kts | 52° |
| 2026-05-06 08:32 | 11.09395 | 106.71547 | 16540 ft | 410 kts | 52° |
| 2026-05-06 08:33 | 11.11162 | 106.73850 | 17317 ft | 414 kts | 53° |
| 2026-05-06 08:33 | 11.12944 | 106.76177 | 18002 ft | 420 kts | 53° |
| 2026-05-06 08:33 | 11.14832 | 106.78477 | 18610 ft | 426 kts | 47° |
| 2026-05-06 08:33 | 11.16999 | 106.80555 | 19225 ft | 431 kts | 40° |
| 2026-05-06 08:34 | 11.19381 | 106.82436 | 19841 ft | 435 kts | 38° |
| 2026-05-06 08:34 | 11.23405 | 106.85572 | 20840 ft | 442 kts | 38° |
| 2026-05-06 08:34 | 11.25852 | 106.87488 | 21429 ft | 446 kts | 39° |
| 2026-05-06 08:35 | 11.28329 | 106.89435 | 22022 ft | 451 kts | 38° |
| 2026-05-06 08:35 | 11.30817 | 106.91399 | 22588 ft | 455 kts | 39° |
| 2026-05-06 08:35 | 11.33329 | 106.93387 | 23152 ft | 459 kts | 39° |
| 2026-05-06 08:35 | 11.35865 | 106.95398 | 23621 ft | 464 kts | 39° |
| 2026-05-06 08:36 | 11.38439 | 106.97394 | 24092 ft | 467 kts | 36° |
| 2026-05-06 08:36 | 11.41211 | 106.99141 | 24559 ft | 471 kts | 29° |
| 2026-05-06 08:36 | 11.44138 | 107.00669 | 25019 ft | 474 kts | 28° |
| 2026-05-06 08:36 | 11.47090 | 107.02188 | 25469 ft | 477 kts | 27° |
| 2026-05-06 08:37 | 11.50059 | 107.03718 | 25909 ft | 480 kts | 28° |
| 2026-05-06 08:37 | 11.53046 | 107.05268 | 26344 ft | 483 kts | 28° |
| 2026-05-06 08:37 | 11.56048 | 107.06834 | 26733 ft | 487 kts | 28° |
| 2026-05-06 08:37 | 11.59074 | 107.08422 | 27123 ft | 491 kts | 28° |
| 2026-05-06 08:38 | 11.62116 | 107.10026 | 27533 ft | 494 kts | 28° |
| 2026-05-06 08:38 | 11.65173 | 107.11641 | 27943 ft | 496 kts | 28° |
| 2026-05-06 08:38 | 11.68246 | 107.13266 | 28324 ft | 499 kts | 28° |
| 2026-05-06 08:38 | 11.71336 | 107.14901 | 28688 ft | 502 kts | 28° |
| 2026-05-06 08:39 | 11.74442 | 107.16544 | 29029 ft | 504 kts | 28° |
| 2026-05-06 08:39 | 11.77564 | 107.18196 | 29362 ft | 507 kts | 28° |
| 2026-05-06 08:39 | 11.80704 | 107.19858 | 29693 ft | 509 kts | 28° |
| 2026-05-06 08:39 | 11.83854 | 107.21524 | 30062 ft | 510 kts | 28° |
| 2026-05-06 08:40 | 11.86961 | 107.23168 | 30455 ft | 508 kts | 28° |
| 2026-05-06 08:40 | 11.90064 | 107.24810 | 30826 ft | 508 kts | 28° |
| 2026-05-06 08:40 | 11.93191 | 107.26464 | 31152 ft | 509 kts | 28° |
| 2026-05-06 08:40 | 11.96307 | 107.28112 | 31534 ft | 509 kts | 28° |
| 2026-05-06 08:41 | 11.99446 | 107.29773 | 31933 ft | 509 kts | 28° |
| 2026-05-06 08:41 | 12.02587 | 107.31437 | 32374 ft | 508 kts | 28° |
| 2026-05-06 08:41 | 12.05722 | 107.33098 | 32834 ft | 507 kts | 28° |
| 2026-05-06 08:41 | 12.08850 | 107.34755 | 33287 ft | 507 kts | 28° |
| 2026-05-06 08:42 | 12.11976 | 107.36413 | 33707 ft | 506 kts | 28° |
| 2026-05-06 08:42 | 12.15107 | 107.38074 | 34040 ft | 507 kts | 28° |
| 2026-05-06 08:42 | 12.18224 | 107.39728 | 34423 ft | 505 kts | 28° |
| 2026-05-06 08:42 | 12.21334 | 107.41380 | 34833 ft | 503 kts | 27° |
| 2026-05-06 08:43 | 12.24425 | 107.43023 | 35333 ft | 498 kts | 27° |
| 2026-05-06 08:43 | 12.27488 | 107.44649 | 35741 ft | 496 kts | 27° |
| 2026-05-06 08:43 | 12.30553 | 107.46275 | 36026 ft | 496 kts | 27° |
| 2026-05-06 08:43 | 12.33620 | 107.47903 | 36301 ft | 497 kts | 27° |
| 2026-05-06 08:44 | 12.36693 | 107.49536 | 36533 ft | 498 kts | 27° |
| 2026-05-06 08:44 | 12.39773 | 107.51174 | 36755 ft | 499 kts | 27° |
| 2026-05-06 08:44 | 12.42867 | 107.52819 | 36798 ft | 502 kts | 27° |
| 2026-05-06 08:45 | 12.49023 | 107.56095 | 36849 ft | 496 kts | 27° |
| 2026-05-06 08:45 | 12.55081 | 107.59319 | 36845 ft | 492 kts | 27° |
| 2026-05-06 08:46 | 12.61138 | 107.62544 | 36836 ft | 491 kts | 26° |
| 2026-05-06 08:46 | 12.67197 | 107.65772 | 36843 ft | 491 kts | 26° |
| 2026-05-06 08:47 | 12.73264 | 107.69005 | 36843 ft | 493 kts | 26° |
| 2026-05-06 08:47 | 12.79363 | 107.72257 | 36829 ft | 495 kts | 26° |
| 2026-05-06 08:48 | 12.85482 | 107.75521 | 36843 ft | 497 kts | 26° |
| 2026-05-06 08:48 | 12.91618 | 107.78795 | 36832 ft | 498 kts | 26° |
| 2026-05-06 08:49 | 12.97763 | 107.82077 | 36824 ft | 498 kts | 26° |
| 2026-05-06 08:49 | 13.03902 | 107.85360 | 36827 ft | 498 kts | 26° |
| 2026-05-06 08:50 | 13.10035 | 107.88641 | 36845 ft | 497 kts | 26° |
| 2026-05-06 08:50 | 13.16162 | 107.91920 | 36833 ft | 496 kts | 26° |
| 2026-05-06 08:51 | 13.22279 | 107.95195 | 36832 ft | 495 kts | 26° |
| 2026-05-06 08:51 | 13.28384 | 107.98464 | 36833 ft | 494 kts | 26° |
| 2026-05-06 08:52 | 13.34480 | 108.01729 | 36829 ft | 494 kts | 26° |
| 2026-05-06 08:52 | 13.40563 | 108.04993 | 36841 ft | 493 kts | 26° |
| 2026-05-06 08:53 | 13.46601 | 108.08234 | 36838 ft | 493 kts | 26° |
| 2026-05-06 08:53 | 13.52672 | 108.11494 | 36837 ft | 492 kts | 26° |
| 2026-05-06 08:54 | 13.58749 | 108.14758 | 36852 ft | 493 kts | 26° |
| 2026-05-06 08:54 | 13.64828 | 108.18026 | 36855 ft | 494 kts | 26° |
| 2026-05-06 08:55 | 13.70919 | 108.21302 | 36857 ft | 494 kts | 26° |
| 2026-05-06 08:55 | 13.77015 | 108.24583 | 36867 ft | 495 kts | 26° |
| 2026-05-06 08:56 | 13.83118 | 108.27869 | 36870 ft | 495 kts | 26° |
| 2026-05-06 08:56 | 13.89225 | 108.31159 | 36872 ft | 496 kts | 26° |
| 2026-05-06 08:57 | 13.95340 | 108.34456 | 36881 ft | 496 kts | 26° |
| 2026-05-06 08:57 | 14.01453 | 108.37754 | 36887 ft | 496 kts | 26° |
| 2026-05-06 08:58 | 14.07572 | 108.41057 | 36892 ft | 497 kts | 26° |
| 2026-05-06 08:58 | 14.13693 | 108.44363 | 36888 ft | 497 kts | 26° |
| 2026-05-06 08:59 | 14.19814 | 108.47671 | 36900 ft | 497 kts | 26° |
| 2026-05-06 08:59 | 14.25926 | 108.50974 | 36897 ft | 495 kts | 26° |
| 2026-05-06 09:00 | 14.32021 | 108.54272 | 36900 ft | 495 kts | 26° |
| 2026-05-06 09:00 | 14.38118 | 108.57574 | 36899 ft | 494 kts | 26° |
| 2026-05-06 09:01 | 14.44199 | 108.60870 | 36899 ft | 494 kts | 26° |
| 2026-05-06 09:01 | 14.50278 | 108.64166 | 36895 ft | 493 kts | 26° |
| 2026-05-06 09:02 | 14.56351 | 108.67460 | 36898 ft | 493 kts | 26° |
| 2026-05-06 09:02 | 14.62401 | 108.70743 | 36898 ft | 493 kts | 26° |
| 2026-05-06 09:03 | 14.68460 | 108.74034 | 36879 ft | 493 kts | 26° |
| 2026-05-06 09:03 | 14.74529 | 108.77333 | 36879 ft | 493 kts | 26° |
| 2026-05-06 09:04 | 14.80559 | 108.80612 | 36880 ft | 493 kts | 26° |
| 2026-05-06 09:04 | 14.86634 | 108.83917 | 36869 ft | 493 kts | 26° |
| 2026-05-06 09:05 | 14.92708 | 108.87225 | 36861 ft | 493 kts | 26° |
| 2026-05-06 09:05 | 14.98779 | 108.90533 | 36855 ft | 493 kts | 26° |
| 2026-05-06 09:06 | 15.04843 | 108.93839 | 36858 ft | 493 kts | 26° |
| 2026-05-06 09:06 | 15.10906 | 108.97147 | 36854 ft | 492 kts | 26° |
| 2026-05-06 09:07 | 15.16961 | 109.00453 | 36856 ft | 492 kts | 26° |
| 2026-05-06 09:07 | 15.23022 | 109.03764 | 36848 ft | 492 kts | 26° |
| 2026-05-06 09:08 | 15.29072 | 109.07071 | 36852 ft | 492 kts | 26° |
| 2026-05-06 09:08 | 15.35141 | 109.10391 | 36849 ft | 493 kts | 26° |
| 2026-05-06 09:09 | 15.41203 | 109.13710 | 36852 ft | 493 kts | 25° |
| 2026-05-06 09:09 | 15.47259 | 109.17028 | 36849 ft | 494 kts | 26° |
| 2026-05-06 09:10 | 15.53334 | 109.20358 | 36857 ft | 494 kts | 25° |
| 2026-05-06 09:10 | 15.59520 | 109.23391 | 36849 ft | 490 kts | 17° |
| 2026-05-06 09:11 | 15.66042 | 109.25146 | 36847 ft | 486 kts | 6° |
| 2026-05-06 09:11 | 15.72740 | 109.25970 | 36856 ft | 484 kts | 4° |
| 2026-05-06 09:12 | 15.79485 | 109.26731 | 36848 ft | 484 kts | 4° |
| 2026-05-06 09:12 | 15.86134 | 109.27516 | 36859 ft | 484 kts | 4° |
| 2026-05-06 09:13 | 15.92866 | 109.28339 | 36848 ft | 484 kts | 5° |
| 2026-05-06 09:13 | 15.99502 | 109.29157 | 36853 ft | 483 kts | 5° |
| 2026-05-06 09:14 | 16.06179 | 109.29979 | 36851 ft | 483 kts | 5° |
| 2026-05-06 09:14 | 16.12851 | 109.30800 | 36852 ft | 483 kts | 5° |
| 2026-05-06 09:15 | 16.19522 | 109.31621 | 36856 ft | 483 kts | 4° |
| 2026-05-06 09:15 | 16.26196 | 109.32443 | 36854 ft | 483 kts | 4° |
| 2026-05-06 09:16 | 16.32863 | 109.33265 | 36860 ft | 483 kts | 4° |
| 2026-05-06 09:16 | 16.39533 | 109.34087 | 36856 ft | 483 kts | 4° |
| 2026-05-06 09:17 | 16.46205 | 109.34911 | 36855 ft | 483 kts | 4° |
| 2026-05-06 09:17 | 16.52875 | 109.35734 | 36856 ft | 483 kts | 5° |
| 2026-05-06 09:18 | 16.59542 | 109.36558 | 36857 ft | 483 kts | 5° |
| 2026-05-06 09:18 | 16.66167 | 109.37378 | 36857 ft | 482 kts | 5° |
| 2026-05-06 09:19 | 16.72833 | 109.38203 | 36860 ft | 482 kts | 5° |
| 2026-05-06 09:19 | 16.79478 | 109.39138 | 36843 ft | 482 kts | 13° |
| 2026-05-06 09:19 | 16.82579 | 109.40478 | 36872 ft | 486 kts | 29° |
| 2026-05-06 09:20 | 16.85281 | 109.42618 | 36859 ft | 492 kts | 43° |
| 2026-05-06 09:20 | 16.87406 | 109.45423 | 36847 ft | 493 kts | 54° |
| 2026-05-06 09:20 | 16.89281 | 109.48425 | 36873 ft | 495 kts | 55° |
| 2026-05-06 09:21 | 16.93055 | 109.54474 | 36867 ft | 498 kts | 54° |
| 2026-05-06 09:21 | 16.96907 | 109.60517 | 36863 ft | 501 kts | 54° |
| 2026-05-06 09:22 | 17.00812 | 109.66567 | 36858 ft | 503 kts | 54° |
| 2026-05-06 09:22 | 17.04721 | 109.72611 | 36859 ft | 503 kts | 54° |
| 2026-05-06 09:23 | 17.07973 | 109.77647 | 36862 ft | 503 kts | 54° |
| 2026-05-06 09:23 | 17.11876 | 109.83701 | 36861 ft | 502 kts | 54° |
| 2026-05-06 09:24 | 17.15765 | 109.89742 | 36861 ft | 500 kts | 54° |
| 2026-05-06 09:24 | 17.19644 | 109.95771 | 36862 ft | 499 kts | 54° |
| 2026-05-06 09:25 | 17.23515 | 110.01792 | 36861 ft | 498 kts | 54° |
| 2026-05-06 09:25 | 17.27380 | 110.07809 | 36863 ft | 498 kts | 54° |
| 2026-05-06 09:26 | 17.31238 | 110.13821 | 36866 ft | 498 kts | 54° |
| 2026-05-06 09:26 | 17.35096 | 110.19840 | 36863 ft | 498 kts | 54° |
| 2026-05-06 09:27 | 17.38952 | 110.25860 | 36865 ft | 498 kts | 54° |
| 2026-05-06 09:27 | 17.42816 | 110.31888 | 36867 ft | 499 kts | 54° |
| 2026-05-06 09:28 | 17.46716 | 110.37895 | 36865 ft | 499 kts | 54° |
| 2026-05-06 09:28 | 17.50603 | 110.43863 | 36867 ft | 499 kts | 54° |
| 2026-05-06 09:29 | 17.54514 | 110.49884 | 36872 ft | 500 kts | 54° |
| 2026-05-06 09:29 | 17.58420 | 110.55911 | 36868 ft | 500 kts | 54° |
| 2026-05-06 09:30 | 17.62327 | 110.61949 | 36868 ft | 500 kts | 54° |
| 2026-05-06 09:30 | 17.66230 | 110.67985 | 36868 ft | 500 kts | 54° |
| 2026-05-06 09:31 | 17.70132 | 110.74024 | 36868 ft | 500 kts | 54° |
| 2026-05-06 09:31 | 17.74032 | 110.80066 | 36869 ft | 500 kts | 54° |
| 2026-05-06 09:32 | 17.77929 | 110.86108 | 36868 ft | 500 kts | 54° |
| 2026-05-06 09:32 | 17.81823 | 110.92150 | 36868 ft | 500 kts | 54° |
| 2026-05-06 09:33 | 17.85714 | 110.98194 | 36868 ft | 500 kts | 54° |
| 2026-05-06 09:33 | 17.89602 | 111.04240 | 36868 ft | 500 kts | 54° |
| 2026-05-06 09:34 | 17.93488 | 111.10287 | 36868 ft | 500 kts | 54° |
| 2026-05-06 09:34 | 17.97374 | 111.16340 | 36871 ft | 500 kts | 54° |
| 2026-05-06 09:35 | 18.01233 | 111.22355 | 36872 ft | 500 kts | 54° |
| 2026-05-06 09:35 | 18.05117 | 111.28417 | 36869 ft | 500 kts | 54° |
| 2026-05-06 09:36 | 18.09005 | 111.34490 | 36870 ft | 501 kts | 54° |
| 2026-05-06 09:36 | 18.12891 | 111.40566 | 36868 ft | 501 kts | 54° |
| 2026-05-06 09:37 | 18.16779 | 111.46649 | 36868 ft | 501 kts | 54° |
| 2026-05-06 09:37 | 18.20663 | 111.52734 | 36876 ft | 501 kts | 54° |
| 2026-05-06 09:38 | 18.24547 | 111.58823 | 36874 ft | 501 kts | 54° |
| 2026-05-06 09:38 | 18.28430 | 111.64917 | 36874 ft | 501 kts | 54° |
| 2026-05-06 09:39 | 18.32312 | 111.71014 | 36875 ft | 501 kts | 54° |
| 2026-05-06 09:39 | 18.36192 | 111.77114 | 36876 ft | 501 kts | 54° |
| 2026-05-06 09:40 | 18.40069 | 111.83216 | 36871 ft | 501 kts | 54° |
| 2026-05-06 09:40 | 18.45880 | 111.92372 | 36874 ft | 501 kts | 54° |
| 2026-05-06 09:41 | 18.49750 | 111.98478 | 36879 ft | 501 kts | 54° |
| 2026-05-06 09:41 | 18.53623 | 112.04594 | 36877 ft | 501 kts | 54° |
| 2026-05-06 09:42 | 18.57491 | 112.10710 | 36877 ft | 501 kts | 54° |
| 2026-05-06 09:42 | 18.61357 | 112.16827 | 36877 ft | 502 kts | 54° |
| 2026-05-06 09:43 | 18.65431 | 112.22750 | 36866 ft | 499 kts | 46° |
| 2026-05-06 09:43 | 18.70422 | 112.27779 | 36882 ft | 495 kts | 35° |
| 2026-05-06 09:44 | 18.76008 | 112.31988 | 36889 ft | 493 kts | 32° |
| 2026-05-06 09:44 | 18.81635 | 112.36139 | 36874 ft | 494 kts | 32° |
| 2026-05-06 09:45 | 18.87229 | 112.40341 | 36881 ft | 494 kts | 33° |
| 2026-05-06 09:45 | 18.92814 | 112.44566 | 36882 ft | 494 kts | 33° |
| 2026-05-06 09:46 | 18.98542 | 112.48520 | 36876 ft | 490 kts | 23° |
| 2026-05-06 09:46 | 19.04889 | 112.50982 | 36889 ft | 484 kts | 10° |
| 2026-05-06 09:47 | 19.11496 | 112.52212 | 36881 ft | 482 kts | 6° |
| 2026-05-06 09:47 | 19.18115 | 112.53336 | 36881 ft | 482 kts | 6° |
| 2026-05-06 09:48 | 19.24730 | 112.54501 | 36881 ft | 482 kts | 7° |
| 2026-05-06 09:48 | 19.31337 | 112.55701 | 36885 ft | 482 kts | 7° |
| 2026-05-06 09:49 | 19.37937 | 112.56909 | 36890 ft | 481 kts | 7° |
| 2026-05-06 09:49 | 19.44495 | 112.58109 | 36886 ft | 481 kts | 7° |
| 2026-05-06 09:50 | 19.51086 | 112.59314 | 36887 ft | 481 kts | 7° |
| 2026-05-06 09:50 | 19.57675 | 112.60520 | 36887 ft | 480 kts | 7° |
| 2026-05-06 09:51 | 19.64259 | 112.61725 | 36890 ft | 480 kts | 7° |
| 2026-05-06 09:51 | 19.70845 | 112.62932 | 36889 ft | 480 kts | 7° |
| 2026-05-06 09:52 | 19.77428 | 112.64139 | 36894 ft | 480 kts | 7° |
| 2026-05-06 09:52 | 19.84016 | 112.65349 | 36893 ft | 480 kts | 7° |
| 2026-05-06 09:53 | 19.90604 | 112.66559 | 36897 ft | 481 kts | 7° |
| 2026-05-06 09:53 | 19.97199 | 112.67772 | 36903 ft | 481 kts | 7° |
| 2026-05-06 09:54 | 20.03796 | 112.68986 | 36898 ft | 481 kts | 7° |
| 2026-05-06 09:54 | 20.10400 | 112.70203 | 36898 ft | 482 kts | 7° |
| 2026-05-06 09:55 | 20.17004 | 112.71420 | 36898 ft | 482 kts | 7° |
| 2026-05-06 09:55 | 20.23612 | 112.72638 | 36896 ft | 482 kts | 7° |
| 2026-05-06 09:56 | 20.30221 | 112.73853 | 36897 ft | 482 kts | 7° |
| 2026-05-06 09:56 | 20.36835 | 112.75070 | 36898 ft | 482 kts | 7° |
| 2026-05-06 09:57 | 20.43407 | 112.76281 | 36897 ft | 482 kts | 7° |
| 2026-05-06 09:57 | 20.49991 | 112.77496 | 36899 ft | 482 kts | 7° |
| 2026-05-06 09:58 | 20.56622 | 112.78721 | 36837 ft | 483 kts | 7° |
| 2026-05-06 09:58 | 20.59940 | 112.79333 | 36456 ft | 485 kts | 7° |
| 2026-05-06 09:58 | 20.63257 | 112.79947 | 36094 ft | 482 kts | 7° |
| 2026-05-06 09:59 | 20.66554 | 112.80557 | 35736 ft | 480 kts | 7° |
| 2026-05-06 09:59 | 20.69842 | 112.81166 | 35388 ft | 479 kts | 7° |
| 2026-05-06 09:59 | 20.73122 | 112.81773 | 35046 ft | 479 kts | 7° |
| 2026-05-06 09:59 | 20.76410 | 112.82382 | 34706 ft | 479 kts | 7° |
| 2026-05-06 10:00 | 20.79694 | 112.82990 | 34366 ft | 479 kts | 7° |
| 2026-05-06 10:00 | 20.82979 | 112.83599 | 34034 ft | 479 kts | 7° |
| 2026-05-06 10:00 | 20.86269 | 112.84208 | 33695 ft | 480 kts | 7° |
| 2026-05-06 10:00 | 20.89580 | 112.84822 | 33326 ft | 486 kts | 7° |
| 2026-05-06 10:01 | 20.92928 | 112.85442 | 32966 ft | 491 kts | 7° |
| 2026-05-06 10:01 | 20.96309 | 112.86069 | 32591 ft | 494 kts | 7° |
| 2026-05-06 10:01 | 20.99707 | 112.86701 | 32235 ft | 496 kts | 7° |
| 2026-05-06 10:01 | 21.03105 | 112.87334 | 31877 ft | 497 kts | 7° |
| 2026-05-06 10:02 | 21.06514 | 112.87968 | 31525 ft | 497 kts | 7° |
| 2026-05-06 10:02 | 21.09924 | 112.88603 | 31178 ft | 498 kts | 7° |
| 2026-05-06 10:02 | 21.13323 | 112.89237 | 30824 ft | 493 kts | 7° |
| 2026-05-06 10:02 | 21.16701 | 112.89866 | 30176 ft | 493 kts | 7° |
| 2026-05-06 10:03 | 21.20077 | 112.90495 | 29410 ft | 491 kts | 7° |
| 2026-05-06 10:03 | 21.23429 | 112.91120 | 28645 ft | 489 kts | 7° |
| 2026-05-06 10:03 | 21.26726 | 112.91851 | 27856 ft | 485 kts | 15° |
| 2026-05-06 10:03 | 21.29777 | 112.93436 | 27111 ft | 489 kts | 33° |
| 2026-05-06 10:04 | 21.32266 | 112.95922 | 26403 ft | 490 kts | 49° |
| 2026-05-06 10:04 | 21.34105 | 112.98959 | 25722 ft | 490 kts | 64° |
| 2026-05-06 10:04 | 21.35249 | 113.02387 | 25051 ft | 488 kts | 73° |
| 2026-05-06 10:04 | 21.36239 | 113.05855 | 24536 ft | 483 kts | 72° |
| 2026-05-06 10:05 | 21.37296 | 113.09248 | 24154 ft | 476 kts | 71° |
| 2026-05-06 10:05 | 21.38359 | 113.12500 | 23773 ft | 459 kts | 71° |
| 2026-05-06 10:05 | 21.39418 | 113.15701 | 23027 ft | 449 kts | 71° |
| 2026-05-06 10:05 | 21.40455 | 113.18835 | 22075 ft | 442 kts | 71° |
| 2026-05-06 10:06 | 21.41475 | 113.21933 | 21376 ft | 442 kts | 71° |
| 2026-05-06 10:06 | 21.42497 | 113.25045 | 20929 ft | 444 kts | 71° |
| 2026-05-06 10:06 | 21.43520 | 113.28171 | 20393 ft | 443 kts | 71° |
| 2026-05-06 10:06 | 21.44533 | 113.31271 | 19933 ft | 438 kts | 71° |
| 2026-05-06 10:07 | 21.45534 | 113.34336 | 19578 ft | 431 kts | 71° |
| 2026-05-06 10:07 | 21.46516 | 113.37349 | 19191 ft | 425 kts | 71° |
| 2026-05-06 10:07 | 21.47489 | 113.40332 | 18754 ft | 422 kts | 71° |
| 2026-05-06 10:07 | 21.48455 | 113.43295 | 18269 ft | 420 kts | 71° |
| 2026-05-06 10:08 | 21.49415 | 113.46243 | 17750 ft | 417 kts | 70° |
| 2026-05-06 10:08 | 21.50358 | 113.49172 | 17258 ft | 414 kts | 71° |
| 2026-05-06 10:08 | 21.51285 | 113.52085 | 16764 ft | 411 kts | 71° |
| 2026-05-06 10:08 | 21.52227 | 113.54961 | 16273 ft | 405 kts | 67° |
| 2026-05-06 10:09 | 21.53488 | 113.57651 | 15767 ft | 403 kts | 57° |
| 2026-05-06 10:09 | 21.55101 | 113.60087 | 15283 ft | 398 kts | 49° |
| 2026-05-06 10:09 | 21.56993 | 113.62232 | 14870 ft | 392 kts | 42° |
| 2026-05-06 10:09 | 21.58955 | 113.64252 | 14434 ft | 389 kts | 41° |
| 2026-05-06 10:10 | 21.60891 | 113.66256 | 14137 ft | 382 kts | 42° |
| 2026-05-06 10:10 | 21.62770 | 113.68230 | 13901 ft | 374 kts | 42° |
| 2026-05-06 10:10 | 21.64576 | 113.70141 | 13657 ft | 366 kts | 42° |
| 2026-05-06 10:10 | 21.66389 | 113.72022 | 13379 ft | 359 kts | 40° |
| 2026-05-06 10:11 | 21.68233 | 113.73820 | 13082 ft | 357 kts | 39° |
| 2026-05-06 10:11 | 21.70077 | 113.75594 | 12775 ft | 355 kts | 39° |
| 2026-05-06 10:11 | 21.71912 | 113.77370 | 12440 ft | 354 kts | 40° |
| 2026-05-06 10:11 | 21.73732 | 113.79147 | 12141 ft | 353 kts | 40° |
| 2026-05-06 10:12 | 21.75542 | 113.80920 | 11833 ft | 352 kts | 40° |
| 2026-05-06 10:12 | 21.77350 | 113.82691 | 11517 ft | 351 kts | 40° |
| 2026-05-06 10:12 | 21.79134 | 113.84436 | 11356 ft | 341 kts | 40° |
| 2026-05-06 10:12 | 21.80868 | 113.86134 | 11138 ft | 334 kts | 40° |
| 2026-05-06 10:13 | 21.82582 | 113.87794 | 10853 ft | 326 kts | 37° |
| 2026-05-06 10:13 | 21.84515 | 113.88929 | 10556 ft | 314 kts | 12° |
| 2026-05-06 10:13 | 21.85929 | 113.89143 | 10402 ft | 306 kts | 357° |
| 2026-05-06 10:13 | 21.88007 | 113.88860 | 10156 ft | 298 kts | 341° |
| 2026-05-06 10:14 | 21.89916 | 113.88043 | 9897 ft | 294 kts | 333° |
| 2026-05-06 10:14 | 21.91770 | 113.87107 | 9530 ft | 295 kts | 332° |
| 2026-05-06 10:14 | 21.93623 | 113.86154 | 9142 ft | 296 kts | 332° |
| 2026-05-06 10:14 | 21.95485 | 113.85199 | 8759 ft | 297 kts | 332° |
| 2026-05-06 10:15 | 21.97338 | 113.84259 | 8337 ft | 289 kts | 332° |
| 2026-05-06 10:15 | 21.99132 | 113.83357 | 7926 ft | 280 kts | 332° |
| 2026-05-06 10:15 | 22.00884 | 113.82479 | 7547 ft | 275 kts | 332° |
| 2026-05-06 10:15 | 22.02598 | 113.81621 | 7148 ft | 268 kts | 332° |
| 2026-05-06 10:16 | 22.04271 | 113.80787 | 6761 ft | 263 kts | 332° |
| 2026-05-06 10:16 | 22.05873 | 113.79987 | 6490 ft | 263 kts | 332° |
| 2026-05-06 10:16 | 22.07525 | 113.79165 | 6209 ft | 261 kts | 332° |
| 2026-05-06 10:16 | 22.09167 | 113.78346 | 5911 ft | 260 kts | 332° |
| 2026-05-06 10:17 | 22.10812 | 113.77524 | 5575 ft | 261 kts | 333° |
| 2026-05-06 10:17 | 22.12465 | 113.76699 | 5247 ft | 262 kts | 333° |
| 2026-05-06 10:17 | 22.14116 | 113.75875 | 4909 ft | 262 kts | 333° |
| 2026-05-06 10:17 | 22.15770 | 113.75051 | 4574 ft | 263 kts | 333° |
| 2026-05-06 10:18 | 22.17441 | 113.74217 | 4242 ft | 264 kts | 334° |
| 2026-05-06 10:18 | 22.19080 | 113.73396 | 3883 ft | 255 kts | 334° |
| 2026-05-06 10:18 | 22.20651 | 113.72612 | 3613 ft | 240 kts | 334° |
| 2026-05-06 10:18 | 22.22119 | 113.71910 | 3371 ft | 223 kts | 341° |
| 2026-05-06 10:19 | 22.23616 | 113.71838 | 2916 ft | 214 kts | 20° |
| 2026-05-06 10:19 | 22.24876 | 113.72626 | 2634 ft | 209 kts | 40° |
| 2026-05-06 10:19 | 22.25979 | 113.73615 | 2541 ft | 204 kts | 43° |
| 2026-05-06 10:19 | 22.27040 | 113.74598 | 2455 ft | 197 kts | 43° |
| 2026-05-06 10:20 | 22.27903 | 113.75643 | 2268 ft | 188 kts | 67° |
| 2026-05-06 10:20 | 22.28419 | 113.76887 | 2100 ft | 174 kts | 67° |
| 2026-05-06 10:20 | 22.28864 | 113.78053 | 1904 ft | 160 kts | 71° |
| 2026-05-06 10:20 | 22.29228 | 113.79141 | 1725 ft | 149 kts | 74° |
| 2026-05-06 10:21 | 22.29569 | 113.80201 | 1536 ft | 151 kts | 74° |
| 2026-05-06 10:21 | 22.29913 | 113.81278 | 1340 ft | 152 kts | 75° |
| 2026-05-06 10:21 | 22.30264 | 113.82366 | 1130 ft | 154 kts | 75° |
| 2026-05-06 10:21 | 22.30606 | 113.83468 | 961 ft | 155 kts | 75° |
| 2026-05-06 10:22 | 22.30968 | 113.84563 | 761 ft | 154 kts | 74° |
| 2026-05-06 10:22 | 22.31314 | 113.85626 | 559 ft | 148 kts | 74° |
| 2026-05-06 10:22 | 22.31658 | 113.86693 | 366 ft | 150 kts | 73° |
| 2026-05-06 10:22 | 22.32001 | 113.87728 | 171 ft | 148 kts | 74° |
| 2026-05-06 10:23 | 22.32338 | 113.88778 | 46 ft | 140 kts | 73° |
| 2026-05-06 10:23 | 22.32620 | 113.89651 | 41 ft | 107 kts | 70° |
| 2026-05-06 10:23 | 22.32803 | 113.90215 | 41 ft | 58 kts | 73° |
| 2026-05-06 10:23 | 22.32800 | 113.90567 | 40 ft | 37 kts | 102° |
| 2026-05-06 10:24 | 22.32793 | 113.90747 | 40 ft | 21 kts | 75° |
| 2026-05-06 10:24 | 22.32842 | 113.90897 | 40 ft | 21 kts | 70° |
| 2026-05-06 10:24 | 22.32891 | 113.91048 | 40 ft | 21 kts | 71° |
| 2026-05-06 10:24 | 22.32940 | 113.91200 | 40 ft | 21 kts | 71° |
| 2026-05-06 10:25 | 22.32989 | 113.91352 | 40 ft | 21 kts | 70° |
| 2026-05-06 10:25 | 22.33038 | 113.91504 | 40 ft | 21 kts | 71° |
| 2026-05-06 10:25 | 22.33087 | 113.91655 | 40 ft | 21 kts | 70° |
| 2026-05-06 10:25 | 22.33136 | 113.91807 | 40 ft | 21 kts | 71° |
| 2026-05-06 10:26 | 22.33184 | 113.91958 | 40 ft | 21 kts | 71° |
| 2026-05-06 10:26 | 22.33207 | 113.92087 | 40 ft | 12 kts | 114° |
| 2026-05-06 10:26 | 22.33131 | 113.92134 | 40 ft | 17 kts | 161° |
| 2026-05-06 10:26 | 22.32984 | 113.92188 | 40 ft | 24 kts | 161° |
| 2026-05-06 10:27 | 22.32827 | 113.92248 | 39 ft | 24 kts | 161° |
| 2026-05-06 10:27 | 22.32669 | 113.92307 | 40 ft | 24 kts | 160° |
| 2026-05-06 10:27 | 22.32511 | 113.92368 | 40 ft | 24 kts | 161° |
| 2026-05-06 10:27 | 22.32353 | 113.92426 | 40 ft | 24 kts | 161° |
| 2026-05-06 10:28 | 22.32230 | 113.92473 | 40 ft | 15 kts | 161° |
| 2026-05-06 10:28 | 22.32164 | 113.92542 | 40 ft | 15 kts | 87° |
| 2026-05-06 10:28 | 22.32194 | 113.92647 | 40 ft | 15 kts | 84° |
| 2026-05-06 10:28 | 22.32120 | 113.92709 | 40 ft | 15 kts | 163° |
| 2026-05-06 10:29 | 22.32021 | 113.92745 | 40 ft | 15 kts | 160° |
| 2026-05-06 10:29 | 22.31924 | 113.92782 | 40 ft | 15 kts | 160° |
| 2026-05-06 10:29 | 22.31830 | 113.92824 | 40 ft | 15 kts | 150° |
| 2026-05-06 10:29 | 22.31826 | 113.92928 | 40 ft | 15 kts | 72° |
| 2026-05-06 10:30 | 22.31859 | 113.93035 | 40 ft | 15 kts | 70° |
| 2026-05-06 10:30 | 22.31838 | 113.93130 | 40 ft | 15 kts | 155° |
| 2026-05-06 10:30 | 22.31739 | 113.93166 | 40 ft | 15 kts | 161° |
| 2026-05-06 10:30 | 22.31671 | 113.93206 | 40 ft | 9 kts | 112° |
| 2026-05-06 10:31 | 22.31684 | 113.93275 | 40 ft | 9 kts | 71° |
| 2026-05-06 10:31 | 22.31692 | 113.93300 | 40 ft | 0 kts | 71° |